TAF Text Data
IDs:
Format:
Raw Decoded Include METAR

Data at: 0051 UTC 14 May 2021

KDCA 132352Z 35008KT 10SM SCT120 19/M01 A3021 RMK AO2 SLP229 T01891006 10222 20189 55000

KDCA 132320Z 1400/1506 32007KT P6SM SCT100
  FM140300 34004KT P6SM FEW080
  FM141500 35005KT P6SM SCT060
  FM150000 25003KT P6SM FEW250